Central Virginia Flyers


Central Virginia Flyers is a 10 member flying club based in Richmond, VA at Hanover County Airport (KOFP). We own N787AT, a 1977 Cessna 172 with 180hp conversion. If you are interested in membership, please contact Brenton at [email protected]


Aviation Digital Data Service (ADDS)

Output produced by METARs form (0554 UTC 02 May 2016)
found at http://aviationweather.gov/adds/metars/
 
KOFP 020534Z AUTO VRB03KT 3SM VCTS +RA BR FEW003 BKN039 OVC085 17/15 A3001 RMK AO2 LTG DSNT NE AND S AND SW TSE00 P0019 T01670150
KRIC 020454Z COR 03004KT 1/4SM R34/3000V5000FT -TSRA FG BKN002 OVC022CB 17/17 A2998 RMK AO2 RAB52 TSB45 SLP158 OCNL LTGCGCC NW TS NW MOV NE P0000 T01720172 401940111
KRIC 020535Z 0206/0306 VRB04KT 1/2SM -TSRA FG OVC002CB 
     FM020700 VRB04KT 1SM -RA BR BKN002 OVC020 
     FM020800 10004KT 1SM BR OVC002 
     FM021400 18005KT 4SM BR OVC005 
     FM021600 21008KT P6SM SCT060 BKN200